Time;durP1;ratioP1;P1;durP2;ratioP2;P2;SDS_P1;SDS_P2;PMS_P1;PMS_P2;Temp;Humidity;BMP_temperature;BMP_pressure;BME280_temperature;BME280_humidity;BME280_pressure;Samples;Min_cycle;Max_cycle;Signal;HPM_P1;HPM_P2
2023/10/05 00:04:15;;;;;;;15.35;7.25;;;;;;;18.62;100.00;101684.94;20926221;28;20100;-69
2023/10/05 00:14:38;;;;;;;18.52;7.60;;;;;;;18.53;100.00;101674.19;20943988;28;20048;-69
2023/10/05 00:25:04;;;;;;;18.70;7.65;;;;;;;18.44;100.00;101680.47;21001092;28;20058;-69
2023/10/05 00:35:29;;;;;;;19.40;7.72;;;;;;;18.22;100.00;101668.03;20966898;28;20114;-68
2023/10/05 00:45:56;;;;;;;18.85;7.40;;;;;;;18.27;100.00;101666.22;20970030;28;20055;-69
2023/10/05 00:56:22;;;;;;;15.27;7.53;;;;;;;18.10;100.00;101676.97;21005077;28;20076;-69
2023/10/05 01:06:54;;;;;;;17.38;7.93;;;;;;;18.16;100.00;101662.69;20994035;28;20045;-68
2023/10/05 01:17:20;;;;;;;16.77;7.78;;;;;;;18.19;100.00;101668.91;21000345;28;20139;-69
2023/10/05 01:27:47;;;;;;;17.60;7.68;;;;;;;18.19;100.00;101662.66;20974862;28;20048;-69
2023/10/05 01:38:11;;;;;;;16.17;7.60;;;;;;;18.11;100.00;101668.06;20977768;28;20103;-68
2023/10/05 01:48:35;;;;;;;19.05;8.02;;;;;;;18.18;100.00;101661.78;20969852;28;20137;-68
2023/10/05 01:59:00;;;;;;;23.52;8.57;;;;;;;18.18;100.00;101667.13;20992437;28;20552;-69
2023/10/05 02:09:26;;;;;;;20.98;8.52;;;;;;;18.04;100.00;101668.94;20966810;28;20072;-69
2023/10/05 02:19:49;;;;;;;20.13;8.00;;;;;;;17.88;100.00;101673.38;20980194;28;20053;-69
2023/10/05 02:30:17;;;;;;;18.92;8.57;;;;;;;17.73;100.00;101681.38;20973524;28;20173;-69
2023/10/05 02:40:54;;;;;;;17.23;7.88;;;;;;;17.62;100.00;101675.16;20968935;28;20072;-69
2023/10/05 02:51:19;;;;;;;19.48;8.48;;;;;;;17.66;100.00;101687.59;20983525;28;20052;-69
2023/10/05 03:01:43;;;;;;;19.35;8.13;;;;;;;17.56;100.00;101691.13;21009424;28;20400;-69
2023/10/05 03:12:10;;;;;;;17.50;8.02;;;;;;;17.49;100.00;101700.00;20967866;28;20496;-69
2023/10/05 03:22:34;;;;;;;18.23;8.00;;;;;;;17.40;100.00;101695.53;21003709;28;20139;-69
2023/10/05 03:33:00;;;;;;;19.08;8.02;;;;;;;17.30;100.00;101691.06;20957029;28;20045;-69
2023/10/05 03:43:24;;;;;;;16.67;7.88;;;;;;;17.27;100.00;101696.38;20988388;28;20403;-68
2023/10/05 03:53:53;;;;;;;20.40;8.68;;;;;;;17.24;100.00;101704.41;20986055;28;20044;-69
2023/10/05 04:04:21;;;;;;;18.40;8.18;;;;;;;17.24;100.00;101715.06;20998111;28;20044;-68
2023/10/05 04:14:46;;;;;;;17.23;7.93;;;;;;;17.21;100.00;101711.47;20983897;28;20041;-68
2023/10/05 04:25:09;;;;;;;19.05;7.63;;;;;;;17.29;100.00;101710.63;20944484;28;20052;-69
2023/10/05 04:35:42;;;;;;;19.15;7.65;;;;;;;17.29;100.00;101720.41;20990109;28;20487;-69
2023/10/05 04:46:07;;;;;;;17.63;7.97;;;;;;;17.47;100.00;101720.47;20949806;28;20135;-68
2023/10/05 04:56:43;;;;;;;18.80;7.88;;;;;;;18.10;100.00;101729.50;20969010;28;20064;-69
2023/10/05 05:07:07;;;;;;;16.90;7.68;;;;;;;18.90;100.00;101739.25;20987408;28;20381;-69
2023/10/05 05:17:32;;;;;;;14.93;6.88;;;;;;;19.25;100.00;101740.00;20971623;28;20052;-69
2023/10/05 05:28:01;;;;;;;21.50;7.68;;;;;;;19.99;100.00;101749.44;20971729;28;20494;-68
2023/10/05 05:38:26;;;;;;;21.05;7.22;;;;;;;20.69;100.00;101741.69;20978772;28;20052;-69
2023/10/05 05:48:52;;;;;;;16.38;7.45;;;;;;;20.92;100.00;101751.28;20967825;28;20435;-69
2023/10/05 05:59:16;;;;;;;19.30;7.88;;;;;;;22.07;100.00;101749.78;20977643;28;20040;-69
2023/10/05 06:09:39;;;;;;;19.38;6.80;;;;;;;22.49;100.00;101758.03;20951277;28;20048;-69
2023/10/05 06:20:13;;;;;;;14.65;6.10;;;;;;;22.93;100.00;101760.84;20969434;28;20068;-69
2023/10/05 06:30:36;;;;;;;12.45;5.43;;;;;;;24.00;100.00;101769.34;20981658;28;20547;-70
2023/10/05 06:41:03;;;;;;;14.77;5.90;;;;;;;24.85;100.00;101773.47;20972129;28;20057;-70
2023/10/05 06:51:27;;;;;;;12.57;5.78;;;;;;;25.57;100.00;101777.75;20969316;28;20664;-70
2023/10/05 07:01:52;;;;;;;15.90;6.38;;;;;;;25.95;100.00;101787.38;20974590;28;20041;-70
2023/10/05 07:12:14;;;;;;;13.35;6.30;;;;;;;26.66;95.77;101800.41;20974011;28;20043;-69
2023/10/05 07:22:39;;;;;;;13.55;6.60;;;;;;;27.23;90.63;101800.19;20968169;28;20048;-71
2023/10/05 07:33:02;;;;;;;13.45;6.10;;;;;;;27.14;85.32;101807.78;20976923;28;20496;-70
2023/10/05 07:43:28;;;;;;;15.63;5.82;;;;;;;26.88;79.32;101809.56;20959459;28;20040;-70
2023/10/05 07:53:51;;;;;;;12.27;5.87;;;;;;;26.71;78.70;101816.53;20977125;28;20044;-70
2023/10/05 08:04:15;;;;;;;12.85;6.50;;;;;;;27.08;73.55;101816.13;20987294;28;20059;-70
2023/10/05 08:14:39;;;;;;;14.00;6.05;;;;;;;27.67;73.55;101812.09;20966753;28;20136;-71
2023/10/05 08:25:11;;;;;;;15.20;7.00;;;;;;;28.62;69.38;101806.44;21009825;28;20060;-70
2023/10/05 08:35:40;;;;;;;15.68;6.00;;;;;;;28.48;63.96;101809.75;21000781;28;20140;-70
2023/10/05 08:46:10;;;;;;;13.43;5.65;;;;;;;28.96;60.15;101805.00;20989898;28;20050;-71
2023/10/05 08:56:33;;;;;;;13.93;6.45;;;;;;;29.08;55.68;101791.72;20988214;28;20140;-70
2023/10/05 09:06:59;;;;;;;15.20;6.35;;;;;;;28.91;54.00;101788.88;21019579;28;20067;-70
2023/10/05 09:17:22;;;;;;;16.13;6.70;;;;;;;29.31;54.27;101779.81;20996931;28;20455;-70
2023/10/05 09:27:50;;;;;;;13.27;6.10;;;;;;;29.80;52.74;101767.50;21004042;28;20049;-70
2023/10/05 09:38:15;;;;;;;13.20;6.13;;;;;;;30.12;51.75;101770.53;20987998;28;20063;-70
2023/10/05 09:48:41;;;;;;;14.07;6.37;;;;;;;30.37;49.11;101768.34;21014191;28;20091;-70
2023/10/05 09:59:05;;;;;;;15.77;5.65;;;;;;;30.17;48.15;101754.84;20964963;28;21154;-70
2023/10/05 10:09:32;;;;;;;13.57;6.22;;;;;;;29.94;48.91;101755.97;21021317;28;20040;-70
2023/10/05 10:20:17;;;;;;;16.20;6.68;;;;;;;30.43;47.32;101738.94;20973890;28;20049;-70
2023/10/05 10:30:47;;;;;;;12.32;5.60;;;;;;;30.12;46.50;101732.41;20962699;28;20159;-70
2023/10/05 10:41:10;;;;;;;13.48;6.25;;;;;;;29.78;46.49;101731.31;20968531;28;20102;-71
2023/10/05 10:51:37;;;;;;;13.02;5.82;;;;;;;29.50;46.24;101709.09;20962582;28;20106;-70
2023/10/05 11:02:11;;;;;;;14.10;6.13;;;;;;;28.91;46.87;101712.75;20986855;28;20048;-70
2023/10/05 11:12:42;;;;;;;15.32;6.63;;;;;;;29.10;47.27;101708.22;20998144;28;20044;-70
2023/10/05 11:23:10;;;;;;;14.82;5.30;;;;;;;29.16;47.34;101701.63;20971168;28;20045;-70
2023/10/05 11:33:35;;;;;;;13.52;6.50;;;;;;;28.89;47.72;101682.91;20991521;28;20143;-71
2023/10/05 11:43:58;;;;;;;13.23;5.82;;;;;;;29.11;48.32;101695.50;20965958;28;20052;-70
2023/10/05 11:54:24;;;;;;;10.68;4.90;;;;;;;28.98;49.21;101681.59;20967273;28;20132;-71
2023/10/05 12:04:48;;;;;;;14.27;6.45;;;;;;;29.01;50.22;101694.19;20977767;28;20057;-70
2023/10/05 12:15:17;;;;;;;15.60;7.32;;;;;;;28.90;50.61;101684.66;20952118;28;20070;-70
2023/10/05 12:25:39;;;;;;;13.18;6.43;;;;;;;29.05;51.84;101680.38;20963968;28;20060;-70
2023/10/05 12:36:07;;;;;;;14.82;6.80;;;;;;;29.03;52.01;101676.81;20946937;28;20041;-70
2023/10/05 12:46:33;;;;;;;15.75;6.10;;;;;;;28.83;52.09;101668.69;20971638;28;20055;-70
2023/10/05 12:57:08;;;;;;;16.85;6.95;;;;;;;28.75;52.32;101660.03;20913190;28;20094;-70
2023/10/05 13:07:31;;;;;;;13.23;6.22;;;;;;;28.61;52.01;101644.31;20974966;28;20045;-70
2023/10/05 13:17:57;;;;;;;13.25;6.55;;;;;;;28.40;51.99;101648.00;20977976;28;20053;-70
2023/10/05 13:28:21;;;;;;;16.20;7.53;;;;;;;27.81;53.73;101637.84;20968406;28;20052;-70
2023/10/05 13:38:46;;;;;;;15.60;7.10;;;;;;;27.56;55.88;101640.69;20969491;28;20044;-70
2023/10/05 13:49:09;;;;;;;15.55;6.97;;;;;;;27.19;60.02;101626.78;20974287;28;20087;-69
2023/10/05 13:59:33;;;;;;;13.48;6.85;;;;;;;27.02;64.00;101622.03;20983007;28;20052;-69
2023/10/05 14:09:56;;;;;;;14.43;7.00;;;;;;;26.65;68.56;101619.78;20937252;28;20068;-69
2023/10/05 14:20:21;;;;;;;15.88;7.18;;;;;;;26.55;72.78;101626.50;20944694;28;20727;-70
2023/10/05 14:30:47;;;;;;;17.33;7.75;;;;;;;26.51;74.63;101616.75;20945448;28;20044;-70
2023/10/05 14:41:11;;;;;;;18.55;7.47;;;;;;;26.32;75.17;101608.38;20955424;28;20185;-69
2023/10/05 14:51:34;;;;;;;17.90;7.47;;;;;;;26.15;76.18;101630.63;20985936;28;20037;-70
2023/10/05 15:01:58;;;;;;;16.17;7.03;;;;;;;26.05;77.86;101631.88;21008336;28;20048;-70
2023/10/05 15:12:21;;;;;;;18.58;9.10;;;;;;;25.88;79.54;101639.69;20994961;28;20048;-70
2023/10/05 15:22:46;;;;;;;18.08;8.27;;;;;;;25.69;80.33;101636.72;21006276;28;20041;-70
2023/10/05 15:33:09;;;;;;;18.10;7.57;;;;;;;25.51;81.91;101639.09;20979064;28;20093;-70
2023/10/05 15:43:33;;;;;;;18.00;8.02;;;;;;;25.39;84.20;101649.38;20945115;28;20052;-70
2023/10/05 15:53:57;;;;;;;19.13;9.05;;;;;;;25.18;86.30;101649.16;20971601;28;20052;-70
2023/10/05 16:04:21;;;;;;;20.88;8.80;;;;;;;25.04;88.78;101652.28;20962544;28;20465;-69
2023/10/05 16:14:44;;;;;;;18.92;8.27;;;;;;;24.93;91.23;101657.13;20981739;28;20037;-70
2023/10/05 16:25:11;;;;;;;16.05;7.70;;;;;;;24.88;93.46;101654.50;20935156;28;20055;-70
2023/10/05 16:35:34;;;;;;;16.13;7.83;;;;;;;24.87;94.65;101668.97;20950597;28;20037;-70
2023/10/05 16:45:59;;;;;;;15.25;8.13;;;;;;;24.75;97.36;101666.59;20968388;28;20064;-70
2023/10/05 16:56:23;;;;;;;15.98;7.60;;;;;;;24.71;98.49;101680.22;20961390;28;20766;-70
2023/10/05 17:06:48;;;;;;;15.13;7.90;;;;;;;24.63;97.26;101683.16;20960757;28;20056;-71
2023/10/05 17:17:12;;;;;;;18.25;8.23;;;;;;;24.50;96.05;101692.50;20989886;28;20102;-70
2023/10/05 17:27:36;;;;;;;16.52;7.75;;;;;;;24.39;95.88;101703.59;20982104;28;20048;-70
2023/10/05 17:37:59;;;;;;;15.93;7.75;;;;;;;24.27;96.03;101706.63;21017584;28;20064;-69
2023/10/05 17:48:23;;;;;;;16.90;8.23;;;;;;;24.17;95.44;101713.13;20968924;28;20056;-70
2023/10/05 17:58:47;;;;;;;18.88;8.63;;;;;;;24.03;96.06;101715.28;20989196;28;20066;-70
2023/10/05 18:09:11;;;;;;;17.00;7.72;;;;;;;23.77;97.80;101714.13;20999408;28;20045;-71
2023/10/05 18:19:36;;;;;;;20.50;8.63;;;;;;;23.64;98.60;101723.41;20959052;28;20396;-70
2023/10/05 18:30:00;;;;;;;17.27;8.20;;;;;;;23.60;99.25;101726.22;20942468;28;20040;-70
2023/10/05 18:40:23;;;;;;;16.15;8.73;;;;;;;23.39;100.00;101731.13;20979359;28;20158;-70
2023/10/05 18:50:48;;;;;;;18.58;7.80;;;;;;;23.32;100.00;101725.91;20958737;28;20144;-69
2023/10/05 19:01:11;;;;;;;19.58;8.90;;;;;;;23.11;100.00;101735.31;20969535;28;20145;-69
2023/10/05 19:11:36;;;;;;;18.30;9.05;;;;;;;23.03;100.00;101738.19;20939003;28;20392;-68
2023/10/05 19:21:58;;;;;;;18.27;8.68;;;;;;;22.96;100.00;101741.94;20964091;28;20045;-70
2023/10/05 19:32:23;;;;;;;16.40;8.63;;;;;;;22.77;100.00;101734.25;20953209;28;20048;-70
2023/10/05 19:42:48;;;;;;;19.73;9.05;;;;;;;22.55;100.00;101731.03;20964752;28;20056;-69
2023/10/05 19:53:12;;;;;;;17.17;9.20;;;;;;;22.39;100.00;101721.44;20936451;28;20047;-70
2023/10/05 20:03:35;;;;;;;15.75;8.88;;;;;;;22.16;100.00;101717.34;20966709;28;20052;-70
2023/10/05 20:14:01;;;;;;;22.88;9.65;;;;;;;21.99;100.00;101708.66;20968242;28;20415;-69
2023/10/05 20:24:25;;;;;;;18.20;9.32;;;;;;;21.80;100.00;101705.34;20985947;28;20083;-70
2023/10/05 20:34:49;;;;;;;20.85;10.40;;;;;;;21.65;100.00;101700.22;20972206;28;20056;-70
2023/10/05 20:45:12;;;;;;;18.88;9.35;;;;;;;21.42;100.00;101695.16;20943540;28;20045;-69
2023/10/05 20:55:38;;;;;;;17.85;9.27;;;;;;;21.30;100.00;101681.91;20976691;28;20045;-70
2023/10/05 21:06:04;;;;;;;20.20;9.55;;;;;;;21.19;100.00;101674.91;20968130;28;20052;-70
2023/10/05 21:16:28;;;;;;;17.92;10.00;;;;;;;21.09;100.00;101666.94;20974022;28;20844;-70
2023/10/05 21:26:51;;;;;;;19.85;10.32;;;;;;;21.02;100.00;101654.50;20958042;28;20057;-70
2023/10/05 21:37:15;;;;;;;22.33;9.80;;;;;;;20.91;100.00;101653.75;20974355;28;20153;-69
2023/10/05 21:47:38;;;;;;;18.77;10.43;;;;;;;20.79;100.00;101647.66;21005753;28;20052;-69
2023/10/05 21:58:02;;;;;;;16.73;9.05;;;;;;;20.66;100.00;101644.22;20972835;28;20055;-69
2023/10/05 22:08:25;;;;;;;18.40;9.48;;;;;;;20.49;100.00;101639.03;21008548;28;20072;-69
2023/10/05 22:18:50;;;;;;;19.83;10.10;;;;;;;20.31;100.00;101628.47;21002514;28;20051;-70
2023/10/05 22:29:12;;;;;;;19.40;10.20;;;;;;;20.25;100.00;101628.53;20969256;28;20075;-70
2023/10/05 22:39:37;;;;;;;22.88;10.15;;;;;;;20.19;100.00;101623.25;20970709;28;20114;-70
2023/10/05 22:50:00;;;;;;;17.05;9.75;;;;;;;20.18;100.00;101613.41;20963521;28;20045;-70
2023/10/05 23:00:26;;;;;;;18.95;10.43;;;;;;;20.06;100.00;101602.81;20975556;28;20059;-70
2023/10/05 23:10:49;;;;;;;20.23;10.77;;;;;;;19.98;100.00;101613.63;20988472;28;20044;-70
2023/10/05 23:21:15;;;;;;;19.42;9.82;;;;;;;19.88;100.00;101607.47;20969305;28;20056;-69
2023/10/05 23:31:38;;;;;;;18.17;9.15;;;;;;;19.75;100.00;101599.56;20976104;28;20075;-70
2023/10/05 23:42:10;;;;;;;19.40;8.93;;;;;;;19.66;100.00;101600.50;20961563;28;20052;-70
2023/10/05 23:52:34;;;;;;;20.60;10.38;;;;;;;19.64;100.00;101599.63;20988173;28;20072;-69
